American Star — WDD7311 — position and weather

sailwx.info

Track history (hours):
 
Tides and Currents Weather Stations Pressure Air Temp Water Temp Dewpoint Dewpoint Depression Visibility Wind Speed Wind Dir Waves Ship Positions

American Star

Owner: American Cruise Lines, Inc, Guilford, CT. More information available from US FCC via Universal Licensing System and Coast Guard Vessel Documentation Center.

Last reported at 2017-Apr-25 16:30 UTC. Time now 2017-Apr-25 16:34 UTC.
Position N 32°05' W 081°05'.

Length 60 m; draft 2.1 m.

Type: Ship (hazmat cat C). MMSI: 367184740.

Date/timePositionNaut miles runAvg speedWind from/ knotsBaromVisibWave heightAir tempDewpointWater temp
2017-Apr-25 16:30N 32°05' W 081°05'0 0.0
2017-Apr-25 16:00N 32°05' W 081°05'0 0.0
2017-Apr-25 15:31N 32°05' W 081°05'0 0.0
2017-Apr-25 15:00N 32°05' W 081°05'0 0.0
2017-Apr-25 14:30N 32°05' W 081°05'0 0.0
2017-Apr-25 13:31N 32°05' W 081°05'0 0.0
2017-Apr-25 13:00N 32°05' W 081°05'0 0.0
2017-Apr-25 12:30N 32°05' W 081°05'0 0.0
2017-Apr-25 12:00N 32°05' W 081°05'0 0.0
2017-Apr-25 11:30N 32°05' W 081°05'0 0.0
2017-Apr-25 11:01N 32°05' W 081°05'0 0.0
2017-Apr-25 10:30N 32°05' W 081°05'0 0.0
2017-Apr-25 09:59N 32°05' W 081°05'0 0.0
2017-Apr-25 09:31N 32°05' W 081°05'0 0.0
2017-Apr-25 09:01N 32°05' W 081°05'0 0.0
2017-Apr-25 08:31N 32°05' W 081°05'0 0.0
2017-Apr-25 08:00N 32°05' W 081°05'0 0.0
2017-Apr-25 07:30N 32°05' W 081°05'0 0.0
2017-Apr-25 07:00N 32°05' W 081°05'0 0.0
2017-Apr-25 06:30N 32°05' W 081°05'0 0.0
2017-Apr-25 06:01N 32°05' W 081°05'0 0.0
2017-Apr-25 05:30N 32°05' W 081°05'0 0.0
2017-Apr-25 05:00N 32°05' W 081°05'0 0.0
2017-Apr-25 04:31N 32°05' W 081°05'0 0.0
2017-Apr-25 04:01N 32°05' W 081°05'0 0.0
2017-Apr-25 03:30N 32°05' W 081°05'0 0.0
2017-Apr-25 03:00N 32°05' W 081°05'0 0.0
2017-Apr-25 02:30N 32°05' W 081°05'0 0.0
2017-Apr-25 02:00N 32°05' W 081°05'0 0.0
2017-Apr-25 01:30N 32°05' W 081°05'0 0.0
2017-Apr-25 01:00N 32°05' W 081°05'0 0.0
2017-Apr-25 00:30N 32°05' W 081°05'0 0.0
2017-Apr-25 00:00N 32°05' W 081°05'0 0.0
2017-Apr-24 23:29N 32°05' W 081°05'0 0.7
2017-Apr-24 23:01N 32°05' W 081°05'3 6.4
2017-Apr-24 22:30N 32°06' W 081°01'4 7.9
2017-Apr-24 22:00N 32°05' W 080°57'3 6.3
2017-Apr-24 21:30N 32°07' W 080°54'4 7.7
2017-Apr-24 21:00N 32°09' W 080°50'1 1.6
2017-Apr-24 20:19N 32°08' W 080°49'0 0.0
2017-Apr-24 19:55N 32°08' W 080°49'0 0.0
2017-Apr-24 19:25N 32°08' W 080°49'0 0.0
2017-Apr-24 18:55N 32°08' W 080°49'0 0.0
2017-Apr-24 18:25N 32°08' W 080°49'0 0.0
2017-Apr-24 17:55N 32°08' W 080°49'0 0.0
2017-Apr-24 17:19N 32°08' W 080°49'0 0.1
2017-Apr-24 16:55N 32°08' W 080°49'0 0.0
2017-Apr-24 16:07N 32°08' W 080°49'0 0.0
2017-Apr-24 15:55N 32°08' W 080°49'0 0.0
2017-Apr-24 15:25N 32°08' W 080°49'0 0.0
2017-Apr-24 15:00N 32°08' W 080°49'3 6.6
2017-Apr-24 14:30N 32°11' W 080°47'7 6.5
2017-Apr-24 13:30N 32°16' W 080°42'  
2017-Apr-21 10:13N 32°11' W 080°26'512.1
2017-Apr-21 09:50N 32°08' W 080°29'411.7
2017-Apr-21 09:30N 32°05' W 080°32'5 8.8
2017-Apr-21 08:59N 32°09' W 080°35'510.4
2017-Apr-21 08:29N 32°14' W 080°38'510.0
2017-Apr-21 08:00N 32°18' W 080°39'5 9.8
2017-Apr-21 07:30N 32°23' W 080°40'3 4.7
2017-Apr-21 06:57N 32°26' W 080°40'0 0.0
2017-Apr-21 06:27N 32°26' W 080°40'0 0.0
2017-Apr-21 05:57N 32°26' W 080°40'7 0.2
2017-Apr-19 22:31N 32°19' W 080°39'3 8.2
2017-Apr-19 22:08N 32°16' W 080°41'211.9
2017-Apr-19 21:58N 32°16' W 080°43'4 7.7
2017-Apr-19 21:30N 32°14' W 080°46'4 7.6
2017-Apr-19 21:00N 32°10' W 080°48'2 3.0
2017-Apr-19 20:22N 32°09' W 080°49'0 0.0
2017-Apr-19 19:52N 32°09' W 080°49'0 0.0
2017-Apr-19 19:28N 32°09' W 080°49'0 0.0
2017-Apr-19 18:58N 32°09' W 080°49'0 0.0
2017-Apr-19 18:10N 32°09' W 080°49'0 0.0
2017-Apr-19 17:58N 32°09' W 080°49'0 0.0
2017-Apr-19 17:28N 32°09' W 080°49'0 0.0
2017-Apr-19 16:58N 32°09' W 080°49'0 0.0
2017-Apr-19 16:30N 32°09' W 080°49'3 6.2
2017-Apr-19 16:00N 32°08' W 080°52'3 6.8
2017-Apr-19 15:30N 32°05' W 080°55'3 5.1
2017-Apr-19 15:00N 32°04' W 080°58'3 6.2
2017-Apr-19 14:30N 32°06' W 081°01'4 2.9
2017-Apr-19 13:16N 32°05' W 081°05'0 0.0
2017-Apr-19 12:58N 32°05' W 081°05'0 0.0
2017-Apr-19 12:28N 32°05' W 081°05'0 0.0
2017-Apr-19 11:58N 32°05' W 081°05'0 0.0
2017-Apr-19 11:28N 32°05' W 081°05'0 0.0
2017-Apr-19 10:34N 32°05' W 081°05'0 0.0
2017-Apr-19 10:28N 32°05' W 081°05'0 0.0
2017-Apr-19 09:58N 32°05' W 081°05'0 0.0
2017-Apr-19 09:28N 32°05' W 081°05'0 0.0
2017-Apr-19 08:58N 32°05' W 081°05'0 0.0
2017-Apr-19 08:28N 32°05' W 081°05'0 0.0
2017-Apr-19 07:52N 32°05' W 081°05'0 0.0
2017-Apr-19 07:16N 32°05' W 081°05'0 0.0
2017-Apr-19 06:28N 32°05' W 081°05'0 0.0
2017-Apr-19 05:52N 32°05' W 081°05'0 0.0
2017-Apr-19 05:28N 32°05' W 081°05'0 0.0
2017-Apr-19 04:16N 32°05' W 081°05'0 0.0
2017-Apr-19 03:52N 32°05' W 081°05'0 0.0
2017-Apr-19 03:28N 32°05' W 081°05'0 0.0
2017-Apr-19 02:52N 32°05' W 081°05'0 0.0
2017-Apr-19 02:28N 32°05' W 081°05'0 0.0
2017-Apr-19 01:58N 32°05' W 081°05'0 0.0
2017-Apr-19 01:28N 32°05' W 081°05'0 0.0
2017-Apr-19 00:58N 32°05' W 081°05'0 0.0
2017-Apr-19 00:28N 32°05' W 081°05'0 0.0
2017-Apr-18 23:58N 32°05' W 081°05'0 0.0
2017-Apr-18 23:28N 32°05' W 081°05'0 0.0
2017-Apr-18 22:10N 32°05' W 081°05'0 0.0
2017-Apr-18 21:58N 32°05' W 081°05'0 0.0
2017-Apr-18 21:28N 32°05' W 081°05'0 0.0
2017-Apr-18 20:58N 32°05' W 081°05'0 0.0
2017-Apr-18 20:28N 32°05' W 081°05'0 0.0
2017-Apr-18 19:58N 32°05' W 081°05'0 0.0
2017-Apr-18 19:28N 32°05' W 081°05'0 0.0
2017-Apr-18 18:58N 32°05' W 081°05'0 0.0
2017-Apr-18 18:28N 32°05' W 081°05'0 0.0
2017-Apr-18 17:58N 32°05' W 081°05'0 0.0
2017-Apr-18 17:28N 32°05' W 081°05'0 0.0
2017-Apr-18 16:58N 32°05' W 081°05'0 0.0
2017-Apr-18 16:28N 32°05' W 081°05'0 0.0
2017-Apr-18 15:58N 32°05' W 081°05'0 0.0
2017-Apr-18 15:22N 32°05' W 081°05'0 0.0
2017-Apr-18 14:58N 32°05' W 081°05'0 0.0
2017-Apr-18 14:28N 32°05' W 081°05'0 0.0
2017-Apr-18 13:28N 32°05' W 081°05'0 0.0
2017-Apr-18 12:52N 32°05' W 081°05'0 0.0
2017-Apr-18 12:28N 32°05' W 081°05'0 0.0
2017-Apr-18 11:52N 32°05' W 081°05'0 0.0
2017-Apr-18 11:28N 32°05' W 081°05'0 0.0
2017-Apr-18 10:58N 32°05' W 081°05'0 0.0
2017-Apr-18 10:28N 32°05' W 081°05'0 0.0
2017-Apr-18 09:58N 32°05' W 081°05'0 0.0
2017-Apr-18 09:28N 32°05' W 081°05'0 0.0
2017-Apr-18 08:46N 32°05' W 081°05'0 0.0
2017-Apr-18 08:28N 32°05' W 081°05'0 0.0
2017-Apr-18 07:58N 32°05' W 081°05'0 0.0
2017-Apr-18 07:28N 32°05' W 081°05'0 0.0
2017-Apr-18 06:58N 32°05' W 081°05'0 0.0
2017-Apr-18 06:28N 32°05' W 081°05'0 0.5
2017-Apr-18 06:01N 32°05' W 081°05'4 8.6
2017-Apr-18 05:31N 32°06' W 081°00'2 3.9
2017-Apr-18 05:00N 32°04' W 081°00'2 4.4
2017-Apr-18 04:30N 32°03' W 081°02'3 5.5
2017-Apr-18 04:00N 32°00' W 081°01'3 5.8
2017-Apr-18 03:30N 31°58' W 081°03'3 6.3
2017-Apr-18 03:01N 31°55' W 081°05'3 6.4
2017-Apr-18 02:31N 31°52' W 081°05'3 5.0
2017-Apr-18 01:59N 31°51' W 081°08'3 6.3
2017-Apr-18 01:29N 31°49' W 081°10'2 5.2
2017-Apr-18 01:00N 31°47' W 081°10'4 7.7
2017-Apr-18 00:26N 31°42' W 081°10'3 7.0
2017-Apr-17 23:56N 31°39' W 081°11'4 7.8
2017-Apr-17 23:24N 31°35' W 081°11'  
Track history (hours):
 
Tides and Currents Weather Stations Pressure Air Temp Water Temp Dewpoint Dewpoint Depression Visibility Wind Speed Wind Dir Waves Ship Positions

American Star

Owner: American Cruise Lines, Inc, Guilford, CT. More information available from US FCC via Universal Licensing System and Coast Guard Vessel Documentation Center.

Last reported at 2017-Apr-25 16:30 UTC. Time now 2017-Apr-25 16:34 UTC.
Position N 32°05' W 081°05'.

Length 60 m; draft 2.1 m.

Type: Ship (hazmat cat C). MMSI: 367184740.

Date/timePositionNaut miles runAvg speedWind from/ knotsBaromVisibWave heightAir tempDewpointWater temp
2017-Apr-25 16:30N 32°05' W 081°05'0 0.0
2017-Apr-25 16:00N 32°05' W 081°05'0 0.0
2017-Apr-25 15:31N 32°05' W 081°05'0 0.0
2017-Apr-25 15:00N 32°05' W 081°05'0 0.0
2017-Apr-25 14:30N 32°05' W 081°05'0 0.0
2017-Apr-25 13:31N 32°05' W 081°05'0 0.0
2017-Apr-25 13:00N 32°05' W 081°05'0 0.0
2017-Apr-25 12:30N 32°05' W 081°05'0 0.0
2017-Apr-25 12:00N 32°05' W 081°05'0 0.0
2017-Apr-25 11:30N 32°05' W 081°05'0 0.0
2017-Apr-25 11:01N 32°05' W 081°05'0 0.0
2017-Apr-25 10:30N 32°05' W 081°05'0 0.0
2017-Apr-25 09:59N 32°05' W 081°05'0 0.0
2017-Apr-25 09:31N 32°05' W 081°05'0 0.0
2017-Apr-25 09:01N 32°05' W 081°05'0 0.0
2017-Apr-25 08:31N 32°05' W 081°05'0 0.0
2017-Apr-25 08:00N 32°05' W 081°05'0 0.0
2017-Apr-25 07:30N 32°05' W 081°05'0 0.0
2017-Apr-25 07:00N 32°05' W 081°05'0 0.0
2017-Apr-25 06:30N 32°05' W 081°05'0 0.0
2017-Apr-25 06:01N 32°05' W 081°05'0 0.0
2017-Apr-25 05:30N 32°05' W 081°05'0 0.0
2017-Apr-25 05:00N 32°05' W 081°05'0 0.0
2017-Apr-25 04:31N 32°05' W 081°05'0 0.0
2017-Apr-25 04:01N 32°05' W 081°05'0 0.0
2017-Apr-25 03:30N 32°05' W 081°05'0 0.0
2017-Apr-25 03:00N 32°05' W 081°05'0 0.0
2017-Apr-25 02:30N 32°05' W 081°05'0 0.0
2017-Apr-25 02:00N 32°05' W 081°05'0 0.0
2017-Apr-25 01:30N 32°05' W 081°05'0 0.0
2017-Apr-25 01:00N 32°05' W 081°05'0 0.0
2017-Apr-25 00:30N 32°05' W 081°05'0 0.0
2017-Apr-25 00:00N 32°05' W 081°05'0 0.0
2017-Apr-24 23:29N 32°05' W 081°05'0 0.7
2017-Apr-24 23:01N 32°05' W 081°05'3 6.4
2017-Apr-24 22:30N 32°06' W 081°01'4 7.9
2017-Apr-24 22:00N 32°05' W 080°57'3 6.3
2017-Apr-24 21:30N 32°07' W 080°54'4 7.7
2017-Apr-24 21:00N 32°09' W 080°50'1 1.6
2017-Apr-24 20:19N 32°08' W 080°49'0 0.0
2017-Apr-24 19:55N 32°08' W 080°49'0 0.0
2017-Apr-24 19:25N 32°08' W 080°49'0 0.0
2017-Apr-24 18:55N 32°08' W 080°49'0 0.0
2017-Apr-24 18:25N 32°08' W 080°49'0 0.0
2017-Apr-24 17:55N 32°08' W 080°49'0 0.0
2017-Apr-24 17:19N 32°08' W 080°49'0 0.1
2017-Apr-24 16:55N 32°08' W 080°49'0 0.0
2017-Apr-24 16:07N 32°08' W 080°49'0 0.0
2017-Apr-24 15:55N 32°08' W 080°49'0 0.0
2017-Apr-24 15:25N 32°08' W 080°49'0 0.0
2017-Apr-24 15:00N 32°08' W 080°49'3 6.6
2017-Apr-24 14:30N 32°11' W 080°47'7 6.5
2017-Apr-24 13:30N 32°16' W 080°42'  
2017-Apr-21 10:13N 32°11' W 080°26'512.1
2017-Apr-21 09:50N 32°08' W 080°29'411.7
2017-Apr-21 09:30N 32°05' W 080°32'5 8.8
2017-Apr-21 08:59N 32°09' W 080°35'510.4
2017-Apr-21 08:29N 32°14' W 080°38'510.0
2017-Apr-21 08:00N 32°18' W 080°39'5 9.8
2017-Apr-21 07:30N 32°23' W 080°40'3 4.7
2017-Apr-21 06:57N 32°26' W 080°40'0 0.0
2017-Apr-21 06:27N 32°26' W 080°40'0 0.0
2017-Apr-21 05:57N 32°26' W 080°40'7 0.2
2017-Apr-19 22:31N 32°19' W 080°39'3 8.2
2017-Apr-19 22:08N 32°16' W 080°41'211.9
2017-Apr-19 21:58N 32°16' W 080°43'4 7.7
2017-Apr-19 21:30N 32°14' W 080°46'4 7.6
2017-Apr-19 21:00N 32°10' W 080°48'2 3.0
2017-Apr-19 20:22N 32°09' W 080°49'0 0.0
2017-Apr-19 19:52N 32°09' W 080°49'0 0.0
2017-Apr-19 19:28N 32°09' W 080°49'0 0.0
2017-Apr-19 18:58N 32°09' W 080°49'0 0.0
2017-Apr-19 18:10N 32°09' W 080°49'0 0.0
2017-Apr-19 17:58N 32°09' W 080°49'0 0.0
2017-Apr-19 17:28N 32°09' W 080°49'0 0.0
2017-Apr-19 16:58N 32°09' W 080°49'0 0.0
2017-Apr-19 16:30N 32°09' W 080°49'3 6.2
2017-Apr-19 16:00N 32°08' W 080°52'3 6.8
2017-Apr-19 15:30N 32°05' W 080°55'3 5.1
2017-Apr-19 15:00N 32°04' W 080°58'3 6.2
2017-Apr-19 14:30N 32°06' W 081°01'4 2.9
2017-Apr-19 13:16N 32°05' W 081°05'0 0.0
2017-Apr-19 12:58N 32°05' W 081°05'0 0.0
2017-Apr-19 12:28N 32°05' W 081°05'0 0.0
2017-Apr-19 11:58N 32°05' W 081°05'0 0.0
2017-Apr-19 11:28N 32°05' W 081°05'0 0.0
2017-Apr-19 10:34N 32°05' W 081°05'0 0.0
2017-Apr-19 10:28N 32°05' W 081°05'0 0.0
2017-Apr-19 09:58N 32°05' W 081°05'0 0.0
2017-Apr-19 09:28N 32°05' W 081°05'0 0.0
2017-Apr-19 08:58N 32°05' W 081°05'0 0.0
2017-Apr-19 08:28N 32°05' W 081°05'0 0.0
2017-Apr-19 07:52N 32°05' W 081°05'0 0.0
2017-Apr-19 07:16N 32°05' W 081°05'0 0.0
2017-Apr-19 06:28N 32°05' W 081°05'0 0.0
2017-Apr-19 05:52N 32°05' W 081°05'0 0.0
2017-Apr-19 05:28N 32°05' W 081°05'0 0.0
2017-Apr-19 04:16N 32°05' W 081°05'0 0.0
2017-Apr-19 03:52N 32°05' W 081°05'0 0.0
2017-Apr-19 03:28N 32°05' W 081°05'0 0.0
2017-Apr-19 02:52N 32°05' W 081°05'0 0.0
2017-Apr-19 02:28N 32°05' W 081°05'0 0.0
2017-Apr-19 01:58N 32°05' W 081°05'0 0.0
2017-Apr-19 01:28N 32°05' W 081°05'0 0.0
2017-Apr-19 00:58N 32°05' W 081°05'0 0.0
2017-Apr-19 00:28N 32°05' W 081°05'0 0.0
2017-Apr-18 23:58N 32°05' W 081°05'0 0.0
2017-Apr-18 23:28N 32°05' W 081°05'0 0.0
2017-Apr-18 22:10N 32°05' W 081°05'0 0.0
2017-Apr-18 21:58N 32°05' W 081°05'0 0.0
2017-Apr-18 21:28N 32°05' W 081°05'0 0.0
2017-Apr-18 20:58N 32°05' W 081°05'0 0.0
2017-Apr-18 20:28N 32°05' W 081°05'0 0.0
2017-Apr-18 19:58N 32°05' W 081°05'0 0.0
2017-Apr-18 19:28N 32°05' W 081°05'0 0.0
2017-Apr-18 18:58N 32°05' W 081°05'0 0.0
2017-Apr-18 18:28N 32°05' W 081°05'0 0.0
2017-Apr-18 17:58N 32°05' W 081°05'0 0.0
2017-Apr-18 17:28N 32°05' W 081°05'0 0.0
2017-Apr-18 16:58N 32°05' W 081°05'0 0.0
2017-Apr-18 16:28N 32°05' W 081°05'0 0.0
2017-Apr-18 15:58N 32°05' W 081°05'0 0.0
2017-Apr-18 15:22N 32°05' W 081°05'0 0.0
2017-Apr-18 14:58N 32°05' W 081°05'0 0.0
2017-Apr-18 14:28N 32°05' W 081°05'0 0.0
2017-Apr-18 13:28N 32°05' W 081°05'0 0.0
2017-Apr-18 12:52N 32°05' W 081°05'0 0.0
2017-Apr-18 12:28N 32°05' W 081°05'0 0.0
2017-Apr-18 11:52N 32°05' W 081°05'0 0.0
2017-Apr-18 11:28N 32°05' W 081°05'0 0.0
2017-Apr-18 10:58N 32°05' W 081°05'0 0.0
2017-Apr-18 10:28N 32°05' W 081°05'0 0.0
2017-Apr-18 09:58N 32°05' W 081°05'0 0.0
2017-Apr-18 09:28N 32°05' W 081°05'0 0.0
2017-Apr-18 08:46N 32°05' W 081°05'0 0.0
2017-Apr-18 08:28N 32°05' W 081°05'0 0.0
2017-Apr-18 07:58N 32°05' W 081°05'0 0.0
2017-Apr-18 07:28N 32°05' W 081°05'0 0.0
2017-Apr-18 06:58N 32°05' W 081°05'0 0.0
2017-Apr-18 06:28N 32°05' W 081°05'0 0.5
2017-Apr-18 06:01N 32°05' W 081°05'4 8.6
2017-Apr-18 05:31N 32°06' W 081°00'2 3.9
2017-Apr-18 05:00N 32°04' W 081°00'2 4.4
2017-Apr-18 04:30N 32°03' W 081°02'3 5.5
2017-Apr-18 04:00N 32°00' W 081°01'3 5.8
2017-Apr-18 03:30N 31°58' W 081°03'3 6.3
2017-Apr-18 03:01N 31°55' W 081°05'3 6.4
2017-Apr-18 02:31N 31°52' W 081°05'3 5.0
2017-Apr-18 01:59N 31°51' W 081°08'3 6.3
2017-Apr-18 01:29N 31°49' W 081°10'2 5.2
2017-Apr-18 01:00N 31°47' W 081°10'4 7.7
2017-Apr-18 00:26N 31°42' W 081°10'3 7.0
2017-Apr-17 23:56N 31°39' W 081°11'4 7.8
2017-Apr-17 23:24N 31°35' W 081°11'  

Dump ship's entire track history